createdAt,value
2019-01-26T00:02:14.344Z,19.50
2019-01-26T00:05:19.670Z,20.20
2019-01-26T00:08:24.879Z,19.97
2019-01-26T00:11:32.616Z,21.27
2019-01-26T00:14:38.010Z,18.10
2019-01-26T00:17:43.309Z,17.03
2019-01-26T00:20:48.653Z,16.17
2019-01-26T00:23:55.012Z,16.17
2019-01-26T00:27:00.289Z,14.70
2019-01-26T00:30:06.910Z,16.90
2019-01-26T00:33:12.150Z,14.80
2019-01-26T00:36:17.460Z,18.70
2019-01-26T00:39:22.677Z,16.50
2019-01-26T00:42:27.952Z,16.53
2019-01-26T00:45:33.244Z,16.53
2019-01-26T00:48:38.617Z,15.10
2019-01-26T00:51:43.929Z,16.80
2019-01-26T00:54:49.271Z,17.17
2019-01-26T00:57:56.485Z,17.60
2019-01-26T01:01:01.608Z,18.47
2019-01-26T01:04:08.285Z,18.17
2019-01-26T01:07:13.604Z,18.50
2019-01-26T01:10:19.258Z,18.90
2019-01-26T01:13:24.672Z,17.13
2019-01-26T01:16:35.868Z,18.40
2019-01-26T01:19:37.032Z,17.83
2019-01-26T01:22:42.393Z,17.80
2019-01-26T01:25:47.803Z,17.10
2019-01-26T01:28:53.244Z,20.90
2019-01-26T01:31:58.579Z,20.73
2019-01-26T01:35:04.124Z,21.00
2019-01-26T01:38:09.378Z,19.13
2019-01-26T01:41:14.657Z,17.00
2019-01-26T01:44:19.930Z,17.80
2019-01-26T01:47:25.228Z,19.33
2019-01-26T01:50:30.532Z,18.13
2019-01-26T01:53:37.039Z,15.90
2019-01-26T01:56:42.329Z,18.53
2019-01-26T01:59:47.619Z,17.90
2019-01-26T02:02:52.957Z,16.87
2019-01-26T02:05:59.777Z,15.30
2019-01-26T02:09:11.267Z,16.07
2019-01-26T02:12:16.510Z,17.93
2019-01-26T02:15:21.889Z,16.13
2019-01-26T02:18:27.152Z,17.00
2019-01-26T02:21:32.448Z,13.77
2019-01-26T02:24:37.696Z,14.47
2019-01-26T02:27:43.207Z,13.10
2019-01-26T02:30:48.491Z,11.40
2019-01-26T02:33:53.777Z,12.87
2019-01-26T02:36:59.074Z,15.27
2019-01-26T02:40:06.657Z,13.73
2019-01-26T02:43:13.159Z,13.33
2019-01-26T02:46:18.479Z,13.60
2019-01-26T02:49:23.781Z,14.13
2019-01-26T02:52:29.192Z,14.50
2019-01-26T02:55:34.518Z,12.63
2019-01-26T02:58:39.912Z,14.80
2019-01-26T03:01:45.193Z,14.60
2019-01-26T03:04:50.486Z,13.00
2019-01-26T03:07:55.781Z,16.77
2019-01-26T03:11:01.081Z,11.57
2019-01-26T03:14:06.406Z,13.90
2019-01-26T03:17:11.729Z,14.43
2019-01-26T03:20:17.345Z,18.03
2019-01-26T03:23:22.601Z,14.70
2019-01-26T03:26:27.867Z,14.30
2019-01-26T03:29:33.145Z,13.20
2019-01-26T03:32:38.385Z,13.70
2019-01-26T03:35:43.704Z,13.27
2019-01-26T03:38:49.003Z,12.27
2019-01-26T03:41:54.267Z,11.23
2019-01-26T03:44:59.552Z,13.70
2019-01-26T03:48:04.922Z,10.40
2019-01-26T03:51:10.209Z,9.33
2019-01-26T03:54:15.623Z,9.10
2019-01-26T03:57:20.879Z,10.40
2019-01-26T04:00:27.384Z,9.60
2019-01-26T04:03:32.663Z,11.50
2019-01-26T04:06:37.904Z,8.63
2019-01-26T04:09:43.178Z,13.73
2019-01-26T04:12:48.429Z,12.80
2019-01-26T04:15:53.728Z,12.20
2019-01-26T04:18:59.148Z,10.93
2019-01-26T04:22:04.407Z,13.63
2019-01-26T04:25:09.648Z,11.53
2019-01-26T04:28:15.970Z,12.10
2019-01-26T04:31:21.286Z,10.17
2019-01-26T04:34:26.583Z,9.10
2019-01-26T04:37:31.835Z,12.80
2019-01-26T04:40:37.033Z,10.90
2019-01-26T04:43:42.366Z,14.03
2019-01-26T04:46:47.708Z,11.57
2019-01-26T04:49:53.011Z,12.90
2019-01-26T04:52:59.730Z,13.53
2019-01-26T04:56:05.941Z,11.00
2019-01-26T04:59:11.238Z,14.33
2019-01-26T05:02:16.508Z,12.60
2019-01-26T05:05:21.756Z,13.30
2019-01-26T05:08:27.089Z,14.33
2019-01-26T05:11:32.330Z,14.27
2019-01-26T05:14:37.621Z,14.13
2019-01-26T05:17:43.032Z,14.73
2019-01-26T05:20:48.300Z,16.87
2019-01-26T05:23:53.592Z,14.37
2019-01-26T05:26:58.814Z,15.57
2019-01-26T05:30:04.843Z,14.80
2019-01-26T05:33:10.154Z,16.57
2019-01-26T05:36:15.503Z,16.93
2019-01-26T05:39:20.855Z,18.27
2019-01-26T05:42:26.111Z,16.00
2019-01-26T05:45:31.383Z,17.27
2019-01-26T05:48:36.633Z,16.90
2019-01-26T05:51:41.982Z,17.27
2019-01-26T05:54:47.226Z,23.13
2019-01-26T05:57:52.597Z,20.07
2019-01-26T06:00:57.927Z,17.00
2019-01-26T06:04:03.268Z,15.60
2019-01-26T06:07:08.573Z,15.50
2019-01-26T06:10:14.337Z,18.13
2019-01-26T06:13:19.544Z,18.37
2019-01-26T06:16:24.812Z,17.20
2019-01-26T06:19:30.138Z,24.50
2019-01-26T06:22:35.417Z,19.00
2019-01-26T06:25:40.655Z,16.90
2019-01-26T06:28:46.011Z,20.13
2019-01-26T06:31:51.230Z,20.17
2019-01-26T06:34:56.459Z,18.27
2019-01-26T06:38:01.702Z,17.70
2019-01-26T06:41:07.001Z,19.43
2019-01-26T06:44:12.248Z,15.97
2019-01-26T06:47:17.507Z,15.60
2019-01-26T06:50:26.430Z,18.93
2019-01-26T06:53:31.788Z,16.03
2019-01-26T06:56:37.217Z,17.20
2019-01-26T06:59:42.474Z,17.77
2019-01-26T07:02:47.778Z,16.50
2019-01-26T07:06:10.016Z,19.40
2019-01-26T07:09:15.292Z,20.30
2019-01-26T07:12:20.661Z,17.90
2019-01-26T07:15:25.979Z,18.20
2019-01-26T07:18:31.252Z,17.57
2019-01-26T07:21:36.543Z,17.90
2019-01-26T07:24:42.928Z,22.90
2019-01-26T07:27:48.236Z,18.17
2019-01-26T07:30:53.499Z,17.77
2019-01-26T07:33:58.866Z,22.03
2019-01-26T07:37:04.217Z,20.53
2019-01-26T07:40:13.519Z,20.80
2019-01-26T07:43:18.813Z,21.83
2019-01-26T07:46:24.107Z,23.80
2019-01-26T07:49:29.438Z,20.10
2019-01-26T07:52:34.781Z,19.57
2019-01-26T07:55:40.053Z,19.37
2019-01-26T07:58:45.312Z,25.10
2019-01-26T08:01:50.538Z,23.70
2019-01-26T08:04:55.860Z,19.90
2019-01-26T08:08:01.166Z,20.23
2019-01-26T08:11:06.543Z,20.57
2019-01-26T08:14:11.862Z,23.20
2019-01-26T08:17:17.167Z,21.67
2019-01-26T08:20:23.012Z,19.50
2019-01-26T08:23:28.383Z,21.63
2019-01-26T08:26:33.652Z,22.13
2019-01-26T08:29:39.030Z,15.43
2019-01-26T08:32:44.455Z,18.10
2019-01-26T08:35:50.019Z,16.63
2019-01-26T08:38:55.360Z,18.10
2019-01-26T08:42:00.724Z,16.73
2019-01-26T08:45:07.602Z,14.00
2019-01-26T08:48:12.958Z,13.77
2019-01-26T08:51:18.192Z,18.23
2019-01-26T08:54:24.128Z,20.77
2019-01-26T08:57:29.530Z,18.40
2019-01-26T09:00:34.877Z,16.87
2019-01-26T09:03:50.855Z,15.73
2019-01-26T09:06:59.966Z,18.50
2019-01-26T09:10:05.661Z,14.03
2019-01-26T09:13:10.991Z,15.60
2019-01-26T09:16:16.504Z,15.50
2019-01-26T09:19:21.860Z,18.10
2019-01-26T09:22:27.161Z,15.20
2019-01-26T09:25:32.442Z,16.97
2019-01-26T09:28:37.730Z,16.37
2019-01-26T09:31:42.995Z,16.73
2019-01-26T09:34:48.247Z,17.40
2019-01-26T09:37:53.632Z,13.60
2019-01-26T09:40:58.902Z,13.90
2019-01-26T09:44:09.476Z,13.83
2019-01-26T09:47:14.856Z,13.60
2019-01-26T09:50:20.693Z,16.13
2019-01-26T09:53:26.080Z,14.13
2019-01-26T09:56:31.453Z,15.20
2019-01-26T09:59:36.755Z,15.17
2019-01-26T10:02:42.105Z,14.03
2019-01-26T10:05:47.411Z,17.27
2019-01-26T10:08:52.677Z,16.67
2019-01-26T10:11:58.911Z,14.37
2019-01-26T10:15:06.116Z,16.37
2019-01-26T10:18:11.392Z,12.77
2019-01-26T10:21:16.620Z,12.63
2019-01-26T10:24:21.903Z,12.70
2019-01-26T10:27:27.136Z,14.80
2019-01-26T10:30:59.231Z,12.97
2019-01-26T10:34:04.715Z,12.17
2019-01-26T10:37:16.440Z,13.10
2019-01-26T10:40:46.400Z,13.57
2019-01-26T10:43:52.681Z,10.30
2019-01-26T10:46:58.014Z,10.97
2019-01-26T10:50:03.350Z,9.30
2019-01-26T10:53:08.668Z,14.53
2019-01-26T10:56:13.967Z,14.37
2019-01-26T10:59:19.232Z,13.87
2019-01-26T11:02:24.430Z,15.43
2019-01-26T11:05:29.840Z,15.03
2019-01-26T11:08:35.096Z,15.63
2019-01-26T11:11:40.444Z,15.60
2019-01-26T11:14:45.776Z,16.50
2019-01-26T11:17:51.072Z,12.60
2019-01-26T11:20:56.394Z,14.67
2019-01-26T11:24:01.648Z,13.63
2019-01-26T11:27:07.096Z,12.70
2019-01-26T11:30:12.466Z,14.17
2019-01-26T11:33:17.701Z,13.33
2019-01-26T11:36:22.995Z,16.00
2019-01-26T11:39:28.266Z,14.07
2019-01-26T11:42:33.852Z,16.23
2019-01-26T11:46:04.309Z,17.10
2019-01-26T11:49:15.061Z,16.13
2019-01-26T11:52:16.655Z,12.50
2019-01-26T11:55:32.074Z,11.73
2019-01-26T11:58:37.400Z,12.53
2019-01-26T12:01:47.647Z,12.03
2019-01-26T12:05:06.501Z,8.83
2019-01-26T12:08:11.766Z,10.07
2019-01-26T12:11:17.186Z,10.67
2019-01-26T12:14:22.676Z,9.57
2019-01-26T12:17:27.976Z,11.30
2019-01-26T12:20:33.346Z,7.83
2019-01-26T12:23:38.581Z,12.90
2019-01-26T12:26:45.156Z,12.33
2019-01-26T12:29:50.490Z,21.70
2019-01-26T12:32:55.771Z,14.57
2019-01-26T12:36:01.081Z,15.00
2019-01-26T12:39:10.145Z,14.60
2019-01-26T12:42:15.462Z,11.60
2019-01-26T12:45:21.988Z,9.93
2019-01-26T12:48:27.282Z,10.47
2019-01-26T12:51:32.585Z,8.57
2019-01-26T12:54:37.919Z,17.97
2019-01-26T12:57:43.162Z,15.03
2019-01-26T13:00:48.454Z,16.83
2019-01-26T13:03:54.266Z,14.23
2019-01-26T13:06:59.631Z,13.20
2019-01-26T13:10:06.701Z,12.60
2019-01-26T13:13:12.195Z,13.13
2019-01-26T13:16:17.546Z,14.50
2019-01-26T13:19:23.027Z,14.37
2019-01-26T13:22:28.318Z,15.93
2019-01-26T13:25:33.870Z,14.30
2019-01-26T13:28:39.157Z,12.63
2019-01-26T13:31:44.407Z,13.10
2019-01-26T13:34:49.789Z,13.60
2019-01-26T13:37:55.036Z,15.23
2019-01-26T13:41:00.336Z,18.13
2019-01-26T13:44:05.751Z,15.47
2019-01-26T13:47:11.006Z,13.57
2019-01-26T13:50:16.328Z,15.20
2019-01-26T13:53:21.589Z,17.37
2019-01-26T13:56:26.892Z,16.37
2019-01-26T13:59:33.129Z,16.47
2019-01-26T14:02:38.351Z,16.70
2019-01-26T14:05:43.731Z,18.87
2019-01-26T14:08:48.979Z,25.53
2019-01-26T14:11:54.262Z,21.30
2019-01-26T14:14:59.502Z,16.27
2019-01-26T14:18:05.606Z,18.70
2019-01-26T14:21:10.871Z,19.90
2019-01-26T14:24:16.316Z,15.90
2019-01-26T14:27:21.650Z,18.53
2019-01-26T14:30:54.097Z,16.53
2019-01-26T14:34:00.049Z,15.13
2019-01-26T14:37:05.602Z,18.23
2019-01-26T14:40:11.431Z,18.97
2019-01-26T14:43:16.704Z,17.17
2019-01-26T14:46:22.005Z,21.50
2019-01-26T14:49:28.301Z,17.47
2019-01-26T14:52:33.655Z,20.40
2019-01-26T14:55:38.930Z,18.17
2019-01-26T14:58:44.206Z,22.00
2019-01-26T15:01:49.541Z,19.00
2019-01-26T15:04:54.899Z,23.10
2019-01-26T15:08:01.939Z,19.80
2019-01-26T15:11:07.261Z,22.07
2019-01-26T15:14:12.506Z,18.47
2019-01-26T15:17:17.822Z,25.30
2019-01-26T15:20:31.269Z,25.23
2019-01-26T15:23:36.567Z,25.20
2019-01-26T15:26:41.845Z,30.67
2019-01-26T15:29:47.146Z,32.90
2019-01-26T15:32:52.552Z,29.50
2019-01-26T15:35:57.850Z,35.87
2019-01-26T15:39:04.731Z,38.13
2019-01-26T15:42:10.080Z,36.50
2019-01-26T15:45:18.368Z,38.73
2019-01-26T15:48:23.659Z,40.40
2019-01-26T15:51:28.949Z,36.83
2019-01-26T15:54:34.235Z,36.23
2019-01-26T15:57:39.566Z,34.27
2019-01-26T16:00:46.721Z,44.07
2019-01-26T16:03:51.995Z,40.57
2019-01-26T16:06:57.377Z,37.93
2019-01-26T16:10:02.720Z,39.60
2019-01-26T16:13:08.184Z,37.83
2019-01-26T16:16:13.523Z,38.33
2019-01-26T16:19:18.870Z,39.47
2019-01-26T16:22:24.141Z,39.80
2019-01-26T16:25:29.714Z,41.10
2019-01-26T16:28:35.006Z,45.80
2019-01-26T16:31:40.258Z,50.63
2019-01-26T16:34:45.545Z,41.47
2019-01-26T16:37:50.851Z,47.77
2019-01-26T16:40:56.115Z,44.57
2019-01-26T16:44:01.431Z,54.00
2019-01-26T16:47:06.759Z,47.00
2019-01-26T16:50:15.781Z,44.20
2019-01-26T16:53:21.166Z,43.80
2019-01-26T16:56:26.473Z,50.20
2019-01-26T16:59:31.775Z,49.10
2019-01-26T17:02:37.075Z,47.87
2019-01-26T17:05:42.352Z,46.80
2019-01-26T17:08:47.649Z,55.37
2019-01-26T17:11:52.941Z,53.30
2019-01-26T17:14:58.248Z,57.97
2019-01-26T17:18:03.853Z,51.73
2019-01-26T17:21:09.181Z,50.30
2019-01-26T17:24:14.499Z,50.43
2019-01-26T17:27:19.899Z,55.57
2019-01-26T17:30:27.615Z,52.30
2019-01-26T17:33:33.016Z,53.73
2019-01-26T17:36:38.347Z,53.93
2019-01-26T17:39:43.609Z,50.50
2019-01-26T17:42:48.985Z,54.77
2019-01-26T17:45:55.328Z,62.83
2019-01-26T17:49:00.647Z,50.40
2019-01-26T17:52:05.940Z,52.90
2019-01-26T17:55:11.342Z,53.50
2019-01-26T17:58:16.615Z,54.53
2019-01-26T18:01:21.953Z,52.37
2019-01-26T18:04:27.255Z,54.57
2019-01-26T18:07:32.557Z,49.93
2019-01-26T18:10:37.830Z,50.90
2019-01-26T18:13:43.127Z,46.63
2019-01-26T18:16:48.410Z,49.40
2019-01-26T18:19:55.415Z,45.30
2019-01-26T18:23:01.843Z,46.10
2019-01-26T18:26:07.424Z,45.00
2019-01-26T18:29:12.739Z,61.07
2019-01-26T18:32:18.103Z,44.70
2019-01-26T18:35:23.387Z,43.90
2019-01-26T18:38:30.993Z,44.40
2019-01-26T18:41:36.510Z,39.43
2019-01-26T18:44:41.775Z,43.37
2019-01-26T18:47:47.364Z,43.97
2019-01-26T18:50:56.386Z,36.77
2019-01-26T18:53:59.808Z,39.23
2019-01-26T18:57:05.512Z,36.23
2019-01-26T19:00:15.028Z,39.13
2019-01-26T19:03:41.312Z,40.03
2019-01-26T19:06:46.673Z,32.50
2019-01-26T19:09:51.923Z,33.60
2019-01-26T19:12:57.228Z,34.23
2019-01-26T19:16:02.607Z,34.83
2019-01-26T19:19:07.914Z,31.17
2019-01-26T19:22:13.254Z,31.47
2019-01-26T19:25:18.973Z,29.20
2019-01-26T19:28:26.838Z,31.20
2019-01-26T19:31:33.057Z,26.60
2019-01-26T19:34:38.358Z,35.73
2019-01-26T19:37:43.678Z,32.30
2019-01-26T19:40:48.993Z,27.83
2019-01-26T19:43:54.303Z,27.87
2019-01-26T19:46:59.599Z,32.40
2019-01-26T19:50:05.818Z,31.23
2019-01-26T19:53:11.119Z,27.50
2019-01-26T19:56:16.417Z,28.80
2019-01-26T19:59:21.755Z,30.00
2019-01-26T20:02:26.963Z,29.87
2019-01-26T20:05:32.287Z,26.47
2019-01-26T20:08:37.559Z,32.20
2019-01-26T20:11:42.862Z,26.80
2019-01-26T20:14:48.213Z,28.27
2019-01-26T20:17:53.509Z,29.73
2019-01-26T20:20:58.868Z,26.90
2019-01-26T20:24:04.284Z,24.80
2019-01-26T20:27:09.614Z,25.77
2019-01-26T20:30:18.336Z,25.70
2019-01-26T20:33:23.695Z,27.40
2019-01-26T20:36:29.065Z,24.93
2019-01-26T20:39:34.296Z,26.43
2019-01-26T20:42:39.658Z,24.00
2019-01-26T20:45:44.918Z,23.50
2019-01-26T20:48:50.237Z,22.13
2019-01-26T20:51:55.517Z,19.00
2019-01-26T20:55:00.839Z,20.33
2019-01-26T20:58:06.219Z,19.23
2019-01-26T21:01:11.533Z,18.63
2019-01-26T21:04:16.772Z,16.57
2019-01-26T21:07:22.039Z,16.03
2019-01-26T21:10:28.994Z,18.10
2019-01-26T21:13:35.405Z,17.87
2019-01-26T21:16:41.573Z,18.50
2019-01-26T21:19:47.171Z,15.80
2019-01-26T21:22:52.512Z,16.47
2019-01-26T21:25:57.842Z,15.43
2019-01-26T21:29:03.127Z,15.13
2019-01-26T21:32:08.448Z,16.93
2019-01-26T21:35:13.729Z,12.37
2019-01-26T21:38:19.003Z,13.90
2019-01-26T21:41:24.302Z,14.40
2019-01-26T21:44:29.613Z,13.10
2019-01-26T21:47:35.118Z,11.40
2019-01-26T21:50:40.457Z,12.10
2019-01-26T21:53:45.807Z,10.80
2019-01-26T21:56:51.133Z,13.27
2019-01-26T21:59:56.442Z,10.33
2019-01-26T22:03:02.411Z,11.17
2019-01-26T22:06:07.717Z,10.47
2019-01-26T22:09:13.073Z,11.40
2019-01-26T22:12:18.338Z,14.00
2019-01-26T22:15:24.184Z,14.80
2019-01-26T22:18:29.489Z,11.70
2019-01-26T22:21:34.850Z,12.40
2019-01-26T22:24:40.335Z,12.13
2019-01-26T22:27:45.842Z,12.23
2019-01-26T22:30:54.111Z,12.10
2019-01-26T22:33:59.540Z,12.30
2019-01-26T22:37:04.897Z,12.13
2019-01-26T22:40:13.438Z,15.30
2019-01-26T22:43:18.702Z,11.80
2019-01-26T22:46:23.968Z,12.67
2019-01-26T22:49:29.263Z,15.43
2019-01-26T22:52:34.502Z,14.00
2019-01-26T22:55:39.793Z,11.03
2019-01-26T22:58:45.114Z,12.80
2019-01-26T23:01:50.507Z,14.40
2019-01-26T23:05:29.370Z,10.87
2019-01-26T23:08:34.902Z,11.43
2019-01-26T23:12:13.876Z,11.07
2019-01-26T23:16:01.047Z,10.67
2019-01-26T23:19:38.274Z,10.40
2019-01-26T23:23:12.588Z,16.20
2019-01-26T23:26:26.597Z,13.00
2019-01-26T23:30:00.283Z,9.13
2019-01-26T23:33:05.999Z,8.20
2019-01-26T23:36:11.404Z,8.23
2019-01-26T23:39:16.768Z,7.53
2019-01-26T23:42:22.207Z,9.43
2019-01-26T23:45:27.484Z,8.03
2019-01-26T23:48:32.858Z,7.30
2019-01-26T23:51:38.362Z,7.07
2019-01-26T23:54:43.697Z,11.30
2019-01-26T23:57:48.973Z,5.80
